This is the latest recevied weather packets stored in our database for station/object K8FJG-13. If no packets are shown the sender has not sent any weather packets the latest 10 day(s).
| Time | Temp. | Humidity | Pressure | Rain* | Wind** | Luminosity | Snow |
|---|---|---|---|---|---|---|---|
| 1777811529 | 5° C | 66% | 971.3 hPa | - | - | - | - |
| 1777810926 | 4.44° C | 73% | 971.3 hPa | - | - | - | - |
| 1777810322 | 3.33° C | 77% | 971.3 hPa | - | - | - | - |
| 1777809719 | 2.78° C | 80% | 971.3 hPa | - | - | - | - |
| 1777809116 | 2.22° C | 82% | 971.1 hPa | - | - | - | - |
| 1777808513 | 1.67° C | 87% | 971.1 hPa | - | - | - | - |
| 1777807910 | 0.56° C | 90% | 971 hPa | - | - | - | - |
| 1777807307 | 0° C | 93% | 970.9 hPa | - | - | - | - |
| 1777806703 | -0.56° C | 94% | 970.7 hPa | - | - | - | - |
| 1777806100 | -0.56° C | 94% | 970.7 hPa | - | - | - | - |
| 1777805497 | -0.56° C | 94% | 970.5 hPa | - | - | - | - |
| 1777804894 | -1.11° C | 94% | 970.5 hPa | - | - | - | - |
| 1777804291 | -1.11° C | 94% | 970.5 hPa | - | - | - | - |
| 1777803688 | -1.11° C | 94% | 970.4 hPa | - | - | - | - |
| 1777803085 | -1.11° C | 94% | 970.3 hPa | - | - | - | - |
| 1777802482 | -1.11° C | 94% | 970.3 hPa | - | - | - | - |
| 1777801879 | -1.11° C | 95% | 970.3 hPa | - | - | - | - |
| 1777801275 | -0.56° C | 94% | 970.4 hPa | - | - | - | - |
| 1777800672 | -0.56° C | 94% | 970.5 hPa | - | - | - | - |
| 1777800069 | -0.56° C | 94% | 970.6 hPa | - | - | - | - |
| 1777799466 | -0.56° C | 94% | 970.6 hPa | - | - | - | - |
| 1777798863 | -0.56° C | 94% | 970.6 hPa | - | - | - | - |
| 1777798260 | -0.56° C | 94% | 970.6 hPa | - | - | - | - |
| 1777797657 | -0.56° C | 93% | 970.6 hPa | - | - | - | - |
| 1777797054 | -0.56° C | 93% | 970.7 hPa | - | - | - | - |
* Rain since midnight (hover to see other rain measurements)
** Current wind speed in m/s (hover to see current wind gust speed)